Forest Lake, Michigan
Current Conditions -  °F | °C
As of 11:34 AM on Tuesday 21 Oct 2014 (Local Time) from KISQ Reporting Station
Scattered Clouds Scattered Clouds  
Wind Chill: 40°   Ceiling: Unl
Heat Index: 45°   Visibility: 10mi
Dew Point: 35°   Wind: 10mph
Humidity: 67%   Direction: 20°NNE
Pressure: 30.22"   Gusts: NA
Location:  46.4479°N, 86.4779°W
Report Text: KISQ 211534Z AUTO 02009KT 10SM SCT022 07/02 A3022 RMK AO2 T00730016
Loading
Personal Weather Stations






























Interactive Weather Map
Tropical Storm Tracking
New forecast layout! Learn more

10-Day Weather Forecast

Advertisements
Track Severe Weather on mobile